sensor_id;sensor_type;location;lat;lon;timestamp;P1;durP1;ratioP1;P2;durP2;ratioP2
70967;SDS011;58629;48.808;8.820;2024-01-30T00:02:14;10.10;;;6.10;;
70967;SDS011;58629;48.808;8.820;2024-01-30T00:04:39;12.68;;;6.90;;
70967;SDS011;58629;48.808;8.820;2024-01-30T00:07:05;20.63;;;9.73;;
70967;SDS011;58629;48.808;8.820;2024-01-30T00:09:30;15.47;;;8.70;;
70967;SDS011;58629;48.808;8.820;2024-01-30T00:11:56;17.77;;;8.90;;
70967;SDS011;58629;48.808;8.820;2024-01-30T00:14:21;14.40;;;8.07;;
70967;SDS011;58629;48.808;8.820;2024-01-30T00:16:47;14.25;;;7.40;;
70967;SDS011;58629;48.808;8.820;2024-01-30T00:19:12;13.23;;;7.05;;
70967;SDS011;58629;48.808;8.820;2024-01-30T00:21:37;13.73;;;7.30;;
70967;SDS011;58629;48.808;8.820;2024-01-30T00:24:03;12.87;;;6.30;;
70967;SDS011;58629;48.808;8.820;2024-01-30T00:26:28;10.60;;;5.83;;
70967;SDS011;58629;48.808;8.820;2024-01-30T00:28:54;13.18;;;6.85;;
70967;SDS011;58629;48.808;8.820;2024-01-30T00:31:19;11.40;;;5.97;;
70967;SDS011;58629;48.808;8.820;2024-01-30T00:33:44;12.10;;;6.27;;
70967;SDS011;58629;48.808;8.820;2024-01-30T00:36:10;12.83;;;6.00;;
70967;SDS011;58629;48.808;8.820;2024-01-30T00:38:36;10.70;;;5.73;;
70967;SDS011;58629;48.808;8.820;2024-01-30T00:41:02;12.00;;;6.15;;
70967;SDS011;58629;48.808;8.820;2024-01-30T00:43:28;12.47;;;6.17;;
70967;SDS011;58629;48.808;8.820;2024-01-30T00:45:53;11.25;;;5.43;;
70967;SDS011;58629;48.808;8.820;2024-01-30T00:48:19;11.10;;;5.97;;
70967;SDS011;58629;48.808;8.820;2024-01-30T00:50:45;9.55;;;5.63;;
70967;SDS011;58629;48.808;8.820;2024-01-30T00:53:10;11.07;;;5.83;;
70967;SDS011;58629;48.808;8.820;2024-01-30T00:55:36;10.48;;;5.55;;
70967;SDS011;58629;48.808;8.820;2024-01-30T00:58:01;9.77;;;5.32;;
70967;SDS011;58629;48.808;8.820;2024-01-30T01:00:26;10.37;;;5.03;;
70967;SDS011;58629;48.808;8.820;2024-01-30T01:02:55;9.65;;;4.75;;
70967;SDS011;58629;48.808;8.820;2024-01-30T01:05:20;9.10;;;4.57;;
70967;SDS011;58629;48.808;8.820;2024-01-30T01:07:46;9.60;;;4.70;;
70967;SDS011;58629;48.808;8.820;2024-01-30T01:10:13;9.73;;;4.85;;
70967;SDS011;58629;48.808;8.820;2024-01-30T01:12:38;8.82;;;4.40;;
70967;SDS011;58629;48.808;8.820;2024-01-30T01:15:04;8.37;;;4.60;;
70967;SDS011;58629;48.808;8.820;2024-01-30T01:17:30;8.20;;;4.35;;
70967;SDS011;58629;48.808;8.820;2024-01-30T01:19:56;8.60;;;4.93;;
70967;SDS011;58629;48.808;8.820;2024-01-30T01:22:22;7.93;;;3.85;;
70967;SDS011;58629;48.808;8.820;2024-01-30T01:24:47;7.90;;;4.07;;
70967;SDS011;58629;48.808;8.820;2024-01-30T01:27:13;7.07;;;3.50;;
70967;SDS011;58629;48.808;8.820;2024-01-30T01:29:38;6.47;;;3.50;;
70967;SDS011;58629;48.808;8.820;2024-01-30T01:32:04;6.60;;;3.53;;
70967;SDS011;58629;48.808;8.820;2024-01-30T01:34:29;6.38;;;3.30;;
70967;SDS011;58629;48.808;8.820;2024-01-30T01:36:55;6.43;;;3.10;;
70967;SDS011;58629;48.808;8.820;2024-01-30T01:39:21;7.30;;;3.70;;
70967;SDS011;58629;48.808;8.820;2024-01-30T01:41:48;7.38;;;4.03;;
70967;SDS011;58629;48.808;8.820;2024-01-30T01:44:14;9.47;;;4.57;;
70967;SDS011;58629;48.808;8.820;2024-01-30T01:46:39;9.23;;;4.13;;
70967;SDS011;58629;48.808;8.820;2024-01-30T01:49:05;9.90;;;4.60;;
70967;SDS011;58629;48.808;8.820;2024-01-30T01:51:33;8.35;;;4.63;;
70967;SDS011;58629;48.808;8.820;2024-01-30T01:54:01;10.32;;;4.50;;
70967;SDS011;58629;48.808;8.820;2024-01-30T01:56:28;10.02;;;5.28;;
70967;SDS011;58629;48.808;8.820;2024-01-30T01:58:55;10.45;;;5.40;;
70967;SDS011;58629;48.808;8.820;2024-01-30T02:01:24;10.87;;;5.23;;
70967;SDS011;58629;48.808;8.820;2024-01-30T02:03:51;13.77;;;7.10;;
70967;SDS011;58629;48.808;8.820;2024-01-30T02:06:16;15.95;;;7.32;;
70967;SDS011;58629;48.808;8.820;2024-01-30T02:08:42;13.35;;;6.47;;
70967;SDS011;58629;48.808;8.820;2024-01-30T02:11:08;11.95;;;6.45;;
70967;SDS011;58629;48.808;8.820;2024-01-30T02:13:35;11.38;;;5.85;;
70967;SDS011;58629;48.808;8.820;2024-01-30T02:16:00;11.00;;;6.30;;
70967;SDS011;58629;48.808;8.820;2024-01-30T02:18:26;11.90;;;6.23;;
70967;SDS011;58629;48.808;8.820;2024-01-30T02:20:52;13.07;;;6.50;;
70967;SDS011;58629;48.808;8.820;2024-01-30T02:23:21;11.38;;;6.32;;
70967;SDS011;58629;48.808;8.820;2024-01-30T02:25:49;13.30;;;6.93;;
70967;SDS011;58629;48.808;8.820;2024-01-30T02:28:14;12.63;;;6.87;;
70967;SDS011;58629;48.808;8.820;2024-01-30T02:30:42;15.00;;;7.43;;
70967;SDS011;58629;48.808;8.820;2024-01-30T02:33:08;13.20;;;6.75;;
70967;SDS011;58629;48.808;8.820;2024-01-30T02:35:33;12.40;;;5.93;;
70967;SDS011;58629;48.808;8.820;2024-01-30T02:37:59;11.32;;;5.88;;
70967;SDS011;58629;48.808;8.820;2024-01-30T02:40:24;11.15;;;5.65;;
70967;SDS011;58629;48.808;8.820;2024-01-30T02:42:50;11.07;;;5.13;;
70967;SDS011;58629;48.808;8.820;2024-01-30T02:45:15;9.70;;;4.93;;
70967;SDS011;58629;48.808;8.820;2024-01-30T02:47:40;9.43;;;5.07;;
70967;SDS011;58629;48.808;8.820;2024-01-30T02:50:06;9.97;;;5.27;;
70967;SDS011;58629;48.808;8.820;2024-01-30T02:52:32;9.55;;;4.50;;
70967;SDS011;58629;48.808;8.820;2024-01-30T02:54:57;9.63;;;4.77;;
70967;SDS011;58629;48.808;8.820;2024-01-30T02:57:23;8.73;;;4.40;;
70967;SDS011;58629;48.808;8.820;2024-01-30T02:59:48;9.13;;;4.40;;
70967;SDS011;58629;48.808;8.820;2024-01-30T03:02:13;7.37;;;4.10;;
70967;SDS011;58629;48.808;8.820;2024-01-30T03:04:40;8.50;;;4.30;;
70967;SDS011;58629;48.808;8.820;2024-01-30T03:07:06;7.18;;;3.75;;
70967;SDS011;58629;48.808;8.820;2024-01-30T03:09:32;7.07;;;3.70;;
70967;SDS011;58629;48.808;8.820;2024-01-30T03:11:57;8.10;;;4.30;;
70967;SDS011;58629;48.808;8.820;2024-01-30T03:14:22;6.50;;;3.73;;
70967;SDS011;58629;48.808;8.820;2024-01-30T03:16:48;7.90;;;4.40;;
70967;SDS011;58629;48.808;8.820;2024-01-30T03:19:13;7.03;;;3.97;;
70967;SDS011;58629;48.808;8.820;2024-01-30T03:21:38;6.28;;;3.35;;
70967;SDS011;58629;48.808;8.820;2024-01-30T03:24:04;5.88;;;3.25;;
70967;SDS011;58629;48.808;8.820;2024-01-30T03:26:29;6.83;;;3.07;;
70967;SDS011;58629;48.808;8.820;2024-01-30T03:28:55;6.30;;;3.37;;
70967;SDS011;58629;48.808;8.820;2024-01-30T03:31:20;7.00;;;3.73;;
70967;SDS011;58629;48.808;8.820;2024-01-30T03:33:45;6.15;;;3.30;;
70967;SDS011;58629;48.808;8.820;2024-01-30T03:36:11;6.93;;;3.67;;
70967;SDS011;58629;48.808;8.820;2024-01-30T03:38:36;6.93;;;3.50;;
70967;SDS011;58629;48.808;8.820;2024-01-30T03:41:02;7.93;;;3.90;;
70967;SDS011;58629;48.808;8.820;2024-01-30T03:43:27;12.80;;;6.60;;
70967;SDS011;58629;48.808;8.820;2024-01-30T03:45:53;10.52;;;4.95;;
70967;SDS011;58629;48.808;8.820;2024-01-30T03:48:18;11.40;;;5.77;;
70967;SDS011;58629;48.808;8.820;2024-01-30T03:50:44;11.57;;;6.00;;
70967;SDS011;58629;48.808;8.820;2024-01-30T03:53:09;9.65;;;5.20;;
70967;SDS011;58629;48.808;8.820;2024-01-30T03:55:34;9.45;;;5.03;;
70967;SDS011;58629;48.808;8.820;2024-01-30T03:58:00;10.27;;;5.03;;
70967;SDS011;58629;48.808;8.820;2024-01-30T04:00:25;8.43;;;4.70;;
70967;SDS011;58629;48.808;8.820;2024-01-30T04:02:51;8.53;;;5.03;;
70967;SDS011;58629;48.808;8.820;2024-01-30T04:05:16;8.52;;;4.55;;
70967;SDS011;58629;48.808;8.820;2024-01-30T04:07:42;10.25;;;4.47;;
70967;SDS011;58629;48.808;8.820;2024-01-30T04:10:08;8.83;;;4.97;;
70967;SDS011;58629;48.808;8.820;2024-01-30T04:12:34;9.93;;;4.97;;
70967;SDS011;58629;48.808;8.820;2024-01-30T04:15:00;8.88;;;4.80;;
70967;SDS011;58629;48.808;8.820;2024-01-30T04:17:25;7.30;;;4.07;;
70967;SDS011;58629;48.808;8.820;2024-01-30T04:19:51;7.33;;;4.00;;
70967;SDS011;58629;48.808;8.820;2024-01-30T04:22:16;7.60;;;4.33;;
70967;SDS011;58629;48.808;8.820;2024-01-30T04:24:41;8.73;;;4.27;;
70967;SDS011;58629;48.808;8.820;2024-01-30T04:27:07;7.57;;;4.10;;
70967;SDS011;58629;48.808;8.820;2024-01-30T04:29:32;7.97;;;3.73;;
70967;SDS011;58629;48.808;8.820;2024-01-30T04:31:58;7.32;;;3.60;;
70967;SDS011;58629;48.808;8.820;2024-01-30T04:34:23;7.37;;;3.70;;
70967;SDS011;58629;48.808;8.820;2024-01-30T04:36:49;7.73;;;3.80;;
70967;SDS011;58629;48.808;8.820;2024-01-30T04:39:15;8.38;;;4.40;;
70967;SDS011;58629;48.808;8.820;2024-01-30T04:41:40;11.60;;;5.80;;
70967;SDS011;58629;48.808;8.820;2024-01-30T04:44:05;9.90;;;5.50;;
70967;SDS011;58629;48.808;8.820;2024-01-30T04:46:31;9.38;;;4.97;;
70967;SDS011;58629;48.808;8.820;2024-01-30T04:48:59;9.43;;;5.18;;
70967;SDS011;58629;48.808;8.820;2024-01-30T04:51:24;8.83;;;4.80;;
70967;SDS011;58629;48.808;8.820;2024-01-30T04:53:49;9.83;;;4.80;;
70967;SDS011;58629;48.808;8.820;2024-01-30T04:56:15;8.70;;;4.17;;
70967;SDS011;58629;48.808;8.820;2024-01-30T04:58:40;9.65;;;5.00;;
70967;SDS011;58629;48.808;8.820;2024-01-30T05:01:05;10.67;;;5.13;;
70967;SDS011;58629;48.808;8.820;2024-01-30T05:03:34;8.97;;;4.87;;
70967;SDS011;58629;48.808;8.820;2024-01-30T05:06:00;8.88;;;4.88;;
70967;SDS011;58629;48.808;8.820;2024-01-30T05:08:25;9.80;;;4.87;;
70967;SDS011;58629;48.808;8.820;2024-01-30T05:10:50;8.33;;;4.60;;
70967;SDS011;58629;48.808;8.820;2024-01-30T05:13:16;8.17;;;4.30;;
70967;SDS011;58629;48.808;8.820;2024-01-30T05:15:41;9.43;;;4.97;;
70967;SDS011;58629;48.808;8.820;2024-01-30T05:18:07;8.50;;;4.47;;
70967;SDS011;58629;48.808;8.820;2024-01-30T05:20:32;8.68;;;4.22;;
70967;SDS011;58629;48.808;8.820;2024-01-30T05:22:57;7.47;;;4.18;;
70967;SDS011;58629;48.808;8.820;2024-01-30T05:25:23;7.60;;;4.60;;
70967;SDS011;58629;48.808;8.820;2024-01-30T05:27:48;9.20;;;4.70;;
70967;SDS011;58629;48.808;8.820;2024-01-30T05:30:14;10.68;;;4.95;;
70967;SDS011;58629;48.808;8.820;2024-01-30T05:32:40;9.20;;;5.07;;
70967;SDS011;58629;48.808;8.820;2024-01-30T05:35:05;9.73;;;5.25;;
70967;SDS011;58629;48.808;8.820;2024-01-30T05:37:32;10.17;;;5.23;;
70967;SDS011;58629;48.808;8.820;2024-01-30T05:39:58;10.27;;;5.20;;
70967;SDS011;58629;48.808;8.820;2024-01-30T05:42:23;15.27;;;7.20;;
70967;SDS011;58629;48.808;8.820;2024-01-30T05:44:49;12.63;;;6.30;;
70967;SDS011;58629;48.808;8.820;2024-01-30T05:47:15;9.77;;;5.25;;
70967;SDS011;58629;48.808;8.820;2024-01-30T05:49:40;10.40;;;6.10;;
70967;SDS011;58629;48.808;8.820;2024-01-30T05:52:06;11.57;;;6.10;;
70967;SDS011;58629;48.808;8.820;2024-01-30T05:54:31;12.50;;;6.47;;
70967;SDS011;58629;48.808;8.820;2024-01-30T05:56:57;11.80;;;5.93;;
70967;SDS011;58629;48.808;8.820;2024-01-30T05:59:22;11.03;;;5.77;;
70967;SDS011;58629;48.808;8.820;2024-01-30T06:01:48;9.90;;;5.70;;
70967;SDS011;58629;48.808;8.820;2024-01-30T06:04:13;14.07;;;6.80;;
70967;SDS011;58629;48.808;8.820;2024-01-30T06:06:39;13.48;;;6.65;;
70967;SDS011;58629;48.808;8.820;2024-01-30T06:09:05;11.25;;;5.88;;
70967;SDS011;58629;48.808;8.820;2024-01-30T06:11:30;11.30;;;6.33;;
70967;SDS011;58629;48.808;8.820;2024-01-30T06:13:56;11.13;;;5.97;;
70967;SDS011;58629;48.808;8.820;2024-01-30T06:16:21;10.50;;;5.57;;
70967;SDS011;58629;48.808;8.820;2024-01-30T06:18:47;10.38;;;5.50;;
70967;SDS011;58629;48.808;8.820;2024-01-30T06:21:13;9.68;;;5.10;;
70967;SDS011;58629;48.808;8.820;2024-01-30T06:23:38;11.27;;;5.60;;
70967;SDS011;58629;48.808;8.820;2024-01-30T06:26:04;11.10;;;6.00;;
70967;SDS011;58629;48.808;8.820;2024-01-30T06:28:31;10.85;;;5.55;;
70967;SDS011;58629;48.808;8.820;2024-01-30T06:30:57;10.00;;;5.27;;
70967;SDS011;58629;48.808;8.820;2024-01-30T06:33:22;10.43;;;5.90;;
70967;SDS011;58629;48.808;8.820;2024-01-30T06:35:47;9.00;;;4.87;;
70967;SDS011;58629;48.808;8.820;2024-01-30T06:38:13;9.05;;;4.82;;
70967;SDS011;58629;48.808;8.820;2024-01-30T06:40:40;8.03;;;4.40;;
70967;SDS011;58629;48.808;8.820;2024-01-30T06:43:06;9.40;;;4.50;;
70967;SDS011;58629;48.808;8.820;2024-01-30T06:45:32;7.88;;;4.28;;
70967;SDS011;58629;48.808;8.820;2024-01-30T06:48:00;9.70;;;4.80;;
70967;SDS011;58629;48.808;8.820;2024-01-30T06:50:25;11.82;;;5.38;;
70967;SDS011;58629;48.808;8.820;2024-01-30T06:52:51;9.13;;;4.87;;
70967;SDS011;58629;48.808;8.820;2024-01-30T06:55:16;13.97;;;5.80;;
70967;SDS011;58629;48.808;8.820;2024-01-30T06:57:42;11.52;;;5.65;;
70967;SDS011;58629;48.808;8.820;2024-01-30T07:00:08;10.30;;;5.90;;
70967;SDS011;58629;48.808;8.820;2024-01-30T07:02:33;10.57;;;5.30;;
70967;SDS011;58629;48.808;8.820;2024-01-30T07:04:59;10.35;;;5.43;;
70967;SDS011;58629;48.808;8.820;2024-01-30T07:07:24;14.30;;;7.20;;
70967;SDS011;58629;48.808;8.820;2024-01-30T07:09:49;13.47;;;6.90;;
70967;SDS011;58629;48.808;8.820;2024-01-30T07:12:20;12.27;;;5.85;;
70967;SDS011;58629;48.808;8.820;2024-01-30T07:14:46;11.30;;;5.50;;
70967;SDS011;58629;48.808;8.820;2024-01-30T07:17:11;10.50;;;5.70;;
70967;SDS011;58629;48.808;8.820;2024-01-30T07:19:36;11.83;;;5.40;;
70967;SDS011;58629;48.808;8.820;2024-01-30T07:22:02;9.40;;;4.90;;
70967;SDS011;58629;48.808;8.820;2024-01-30T07:24:27;9.23;;;4.87;;
70967;SDS011;58629;48.808;8.820;2024-01-30T07:26:52;8.40;;;4.70;;
70967;SDS011;58629;48.808;8.820;2024-01-30T07:29:18;9.33;;;4.90;;
70967;SDS011;58629;48.808;8.820;2024-01-30T07:31:43;9.93;;;4.75;;
70967;SDS011;58629;48.808;8.820;2024-01-30T07:34:09;9.23;;;4.63;;
70967;SDS011;58629;48.808;8.820;2024-01-30T07:36:34;8.53;;;4.90;;
70967;SDS011;58629;48.808;8.820;2024-01-30T07:38:59;9.97;;;4.90;;
70967;SDS011;58629;48.808;8.820;2024-01-30T07:41:25;8.37;;;4.70;;
70967;SDS011;58629;48.808;8.820;2024-01-30T07:43:50;8.77;;;4.67;;
70967;SDS011;58629;48.808;8.820;2024-01-30T07:46:15;7.97;;;4.53;;
70967;SDS011;58629;48.808;8.820;2024-01-30T07:48:41;8.73;;;4.47;;
70967;SDS011;58629;48.808;8.820;2024-01-30T07:51:06;8.20;;;4.47;;
70967;SDS011;58629;48.808;8.820;2024-01-30T07:53:32;11.80;;;5.30;;
70967;SDS011;58629;48.808;8.820;2024-01-30T07:56:00;9.43;;;5.13;;
70967;SDS011;58629;48.808;8.820;2024-01-30T07:58:25;11.13;;;5.40;;
70967;SDS011;58629;48.808;8.820;2024-01-30T08:00:52;9.45;;;4.78;;
70967;SDS011;58629;48.808;8.820;2024-01-30T08:03:18;9.00;;;5.00;;
70967;SDS011;58629;48.808;8.820;2024-01-30T08:05:44;8.97;;;4.63;;
70967;SDS011;58629;48.808;8.820;2024-01-30T08:08:09;7.20;;;3.93;;
70967;SDS011;58629;48.808;8.820;2024-01-30T08:10:34;8.50;;;4.50;;
70967;SDS011;58629;48.808;8.820;2024-01-30T08:13:01;8.50;;;4.03;;
70967;SDS011;58629;48.808;8.820;2024-01-30T08:15:26;9.52;;;4.90;;
70967;SDS011;58629;48.808;8.820;2024-01-30T08:17:52;8.20;;;4.33;;
70967;SDS011;58629;48.808;8.820;2024-01-30T08:20:22;7.03;;;3.80;;
70967;SDS011;58629;48.808;8.820;2024-01-30T08:22:48;8.07;;;4.47;;
70967;SDS011;58629;48.808;8.820;2024-01-30T08:25:13;10.77;;;5.90;;
70967;SDS011;58629;48.808;8.820;2024-01-30T08:27:38;12.20;;;6.38;;
70967;SDS011;58629;48.808;8.820;2024-01-30T08:30:05;13.77;;;8.00;;
70967;SDS011;58629;48.808;8.820;2024-01-30T08:32:31;14.23;;;8.05;;
70967;SDS011;58629;48.808;8.820;2024-01-30T08:34:57;11.83;;;6.50;;
70967;SDS011;58629;48.808;8.820;2024-01-30T08:37:23;10.93;;;6.00;;
70967;SDS011;58629;48.808;8.820;2024-01-30T08:39:48;10.32;;;5.90;;
70967;SDS011;58629;48.808;8.820;2024-01-30T08:42:13;11.40;;;6.20;;
70967;SDS011;58629;48.808;8.820;2024-01-30T08:44:39;11.57;;;5.97;;
70967;SDS011;58629;48.808;8.820;2024-01-30T08:47:04;10.93;;;5.53;;
70967;SDS011;58629;48.808;8.820;2024-01-30T08:49:30;9.85;;;5.35;;
70967;SDS011;58629;48.808;8.820;2024-01-30T08:51:56;9.18;;;4.97;;
70967;SDS011;58629;48.808;8.820;2024-01-30T08:54:21;9.27;;;4.57;;
70967;SDS011;58629;48.808;8.820;2024-01-30T08:56:48;10.50;;;5.40;;
70967;SDS011;58629;48.808;8.820;2024-01-30T08:59:13;10.07;;;5.10;;
70967;SDS011;58629;48.808;8.820;2024-01-30T09:01:38;9.00;;;4.88;;
70967;SDS011;58629;48.808;8.820;2024-01-30T09:04:04;9.90;;;5.47;;
70967;SDS011;58629;48.808;8.820;2024-01-30T09:06:29;11.33;;;5.70;;
70967;SDS011;58629;48.808;8.820;2024-01-30T09:08:54;10.93;;;6.00;;
70967;SDS011;58629;48.808;8.820;2024-01-30T09:11:20;10.37;;;6.00;;
70967;SDS011;58629;48.808;8.820;2024-01-30T09:13:45;9.50;;;5.80;;
70967;SDS011;58629;48.808;8.820;2024-01-30T09:16:10;10.37;;;5.80;;
70967;SDS011;58629;48.808;8.820;2024-01-30T09:18:36;11.23;;;5.93;;
70967;SDS011;58629;48.808;8.820;2024-01-30T09:21:01;9.87;;;5.40;;
70967;SDS011;58629;48.808;8.820;2024-01-30T09:23:27;10.20;;;5.77;;
70967;SDS011;58629;48.808;8.820;2024-01-30T09:25:53;10.80;;;5.90;;
70967;SDS011;58629;48.808;8.820;2024-01-30T09:28:18;9.47;;;5.90;;
70967;SDS011;58629;48.808;8.820;2024-01-30T09:30:44;12.33;;;6.37;;
70967;SDS011;58629;48.808;8.820;2024-01-30T09:33:09;11.97;;;6.20;;
70967;SDS011;58629;48.808;8.820;2024-01-30T09:35:35;10.77;;;6.33;;
70967;SDS011;58629;48.808;8.820;2024-01-30T09:38:03;12.20;;;7.03;;
70967;SDS011;58629;48.808;8.820;2024-01-30T09:40:29;11.23;;;6.57;;
70967;SDS011;58629;48.808;8.820;2024-01-30T09:42:54;10.15;;;6.00;;
70967;SDS011;58629;48.808;8.820;2024-01-30T09:45:23;10.07;;;6.07;;
70967;SDS011;58629;48.808;8.820;2024-01-30T09:47:50;12.65;;;6.68;;
70967;SDS011;58629;48.808;8.820;2024-01-30T09:50:16;12.23;;;6.78;;
70967;SDS011;58629;48.808;8.820;2024-01-30T09:52:42;12.45;;;7.05;;
70967;SDS011;58629;48.808;8.820;2024-01-30T09:55:09;12.75;;;6.78;;
70967;SDS011;58629;48.808;8.820;2024-01-30T09:57:35;13.07;;;6.50;;
70967;SDS011;58629;48.808;8.820;2024-01-30T10:00:01;11.37;;;6.37;;
70967;SDS011;58629;48.808;8.820;2024-01-30T10:02:32;9.30;;;5.40;;
70967;SDS011;58629;48.808;8.820;2024-01-30T10:04:58;12.10;;;6.13;;
70967;SDS011;58629;48.808;8.820;2024-01-30T10:07:25;14.67;;;7.37;;
70967;SDS011;58629;48.808;8.820;2024-01-30T10:09:50;14.20;;;7.57;;
70967;SDS011;58629;48.808;8.820;2024-01-30T10:12:16;15.70;;;8.47;;
70967;SDS011;58629;48.808;8.820;2024-01-30T10:14:42;13.83;;;8.30;;
70967;SDS011;58629;48.808;8.820;2024-01-30T10:17:11;15.98;;;8.30;;
70967;SDS011;58629;48.808;8.820;2024-01-30T10:19:37;16.27;;;8.30;;
70967;SDS011;58629;48.808;8.820;2024-01-30T10:22:04;14.82;;;7.55;;
70967;SDS011;58629;48.808;8.820;2024-01-30T10:24:30;13.23;;;7.20;;
70967;SDS011;58629;48.808;8.820;2024-01-30T10:26:56;12.52;;;6.82;;
70967;SDS011;58629;48.808;8.820;2024-01-30T10:29:21;11.18;;;6.55;;
70967;SDS011;58629;48.808;8.820;2024-01-30T10:31:57;10.32;;;5.95;;
70967;SDS011;58629;48.808;8.820;2024-01-30T10:34:26;12.40;;;7.30;;
70967;SDS011;58629;48.808;8.820;2024-01-30T10:36:55;12.27;;;7.00;;
70967;SDS011;58629;48.808;8.820;2024-01-30T10:39:24;12.13;;;6.50;;
70967;SDS011;58629;48.808;8.820;2024-01-30T10:41:52;12.57;;;6.00;;
70967;SDS011;58629;48.808;8.820;2024-01-30T10:44:24;12.30;;;7.13;;
70967;SDS011;58629;48.808;8.820;2024-01-30T10:46:56;11.63;;;6.18;;
70967;SDS011;58629;48.808;8.820;2024-01-30T10:49:28;10.20;;;6.28;;
70967;SDS011;58629;48.808;8.820;2024-01-30T10:51:54;9.33;;;5.77;;
70967;SDS011;58629;48.808;8.820;2024-01-30T10:54:21;9.90;;;5.88;;
70967;SDS011;58629;48.808;8.820;2024-01-30T10:56:49;8.57;;;5.38;;
70967;SDS011;58629;48.808;8.820;2024-01-30T10:59:15;9.03;;;5.47;;
70967;SDS011;58629;48.808;8.820;2024-01-30T11:01:41;9.68;;;5.68;;
70967;SDS011;58629;48.808;8.820;2024-01-30T11:04:07;10.47;;;6.00;;
70967;SDS011;58629;48.808;8.820;2024-01-30T11:06:32;9.77;;;5.88;;
70967;SDS011;58629;48.808;8.820;2024-01-30T11:09:09;9.17;;;5.47;;
70967;SDS011;58629;48.808;8.820;2024-01-30T11:14:37;9.25;;;5.10;;
70967;SDS011;58629;48.808;8.820;2024-01-30T11:17:05;8.27;;;4.70;;
70967;SDS011;58629;48.808;8.820;2024-01-30T11:19:31;6.30;;;4.40;;
70967;SDS011;58629;48.808;8.820;2024-01-30T11:21:57;8.50;;;5.50;;
70967;SDS011;58629;48.808;8.820;2024-01-30T11:24:22;8.97;;;5.10;;
70967;SDS011;58629;48.808;8.820;2024-01-30T11:27:00;8.10;;;5.18;;
70967;SDS011;58629;48.808;8.820;2024-01-30T11:29:28;7.43;;;4.57;;
70967;SDS011;58629;48.808;8.820;2024-01-30T11:31:57;7.57;;;4.53;;
70967;SDS011;58629;48.808;8.820;2024-01-30T11:34:24;6.90;;;4.60;;
70967;SDS011;58629;48.808;8.820;2024-01-30T11:36:54;6.80;;;4.30;;
70967;SDS011;58629;48.808;8.820;2024-01-30T11:39:24;7.45;;;4.53;;
70967;SDS011;58629;48.808;8.820;2024-01-30T11:41:54;6.80;;;4.20;;
70967;SDS011;58629;48.808;8.820;2024-01-30T11:44:20;7.20;;;4.50;;
70967;SDS011;58629;48.808;8.820;2024-01-30T11:46:47;5.82;;;3.70;;
70967;SDS011;58629;48.808;8.820;2024-01-30T11:49:13;6.35;;;3.60;;
70967;SDS011;58629;48.808;8.820;2024-01-30T11:51:39;8.03;;;5.00;;
70967;SDS011;58629;48.808;8.820;2024-01-30T11:54:04;6.97;;;4.40;;
70967;SDS011;58629;48.808;8.820;2024-01-30T11:56:29;6.53;;;4.17;;
70967;SDS011;58629;48.808;8.820;2024-01-30T11:58:55;6.83;;;4.17;;
70967;SDS011;58629;48.808;8.820;2024-01-30T12:01:20;7.07;;;4.07;;
70967;SDS011;58629;48.808;8.820;2024-01-30T12:03:49;7.53;;;4.60;;
70967;SDS011;58629;48.808;8.820;2024-01-30T12:06:15;7.13;;;4.50;;
70967;SDS011;58629;48.808;8.820;2024-01-30T12:08:41;7.53;;;4.70;;
70967;SDS011;58629;48.808;8.820;2024-01-30T12:11:06;8.63;;;4.88;;
70967;SDS011;58629;48.808;8.820;2024-01-30T12:13:32;8.70;;;4.83;;
70967;SDS011;58629;48.808;8.820;2024-01-30T12:15:57;6.80;;;4.53;;
70967;SDS011;58629;48.808;8.820;2024-01-30T12:18:23;8.25;;;4.90;;
70967;SDS011;58629;48.808;8.820;2024-01-30T12:21:01;9.33;;;5.30;;
70967;SDS011;58629;48.808;8.820;2024-01-30T12:23:27;8.70;;;5.13;;
70967;SDS011;58629;48.808;8.820;2024-01-30T12:25:53;9.55;;;5.60;;
70967;SDS011;58629;48.808;8.820;2024-01-30T12:28:19;8.57;;;5.50;;
70967;SDS011;58629;48.808;8.820;2024-01-30T12:30:45;7.78;;;4.55;;
70967;SDS011;58629;48.808;8.820;2024-01-30T12:33:15;8.13;;;4.60;;
70967;SDS011;58629;48.808;8.820;2024-01-30T12:35:45;6.88;;;4.45;;
70967;SDS011;58629;48.808;8.820;2024-01-30T12:38:12;5.70;;;3.92;;
70967;SDS011;58629;48.808;8.820;2024-01-30T12:40:37;7.13;;;4.17;;
70967;SDS011;58629;48.808;8.820;2024-01-30T12:43:03;8.20;;;4.83;;
70967;SDS011;58629;48.808;8.820;2024-01-30T12:45:28;9.15;;;5.47;;
70967;SDS011;58629;48.808;8.820;2024-01-30T12:47:55;8.93;;;5.40;;
70967;SDS011;58629;48.808;8.820;2024-01-30T12:50:20;7.85;;;4.75;;
70967;SDS011;58629;48.808;8.820;2024-01-30T12:52:46;6.90;;;4.50;;
70967;SDS011;58629;48.808;8.820;2024-01-30T12:55:11;6.87;;;4.40;;
70967;SDS011;58629;48.808;8.820;2024-01-30T12:57:37;8.32;;;4.68;;
70967;SDS011;58629;48.808;8.820;2024-01-30T13:00:04;6.75;;;4.10;;
70967;SDS011;58629;48.808;8.820;2024-01-30T13:02:33;5.65;;;3.80;;
70967;SDS011;58629;48.808;8.820;2024-01-30T13:05:02;5.70;;;4.00;;
70967;SDS011;58629;48.808;8.820;2024-01-30T13:07:28;6.95;;;4.35;;
70967;SDS011;58629;48.808;8.820;2024-01-30T13:09:53;6.93;;;4.13;;
70967;SDS011;58629;48.808;8.820;2024-01-30T13:12:18;5.13;;;3.55;;
70967;SDS011;58629;48.808;8.820;2024-01-30T13:14:44;5.00;;;3.23;;
70967;SDS011;58629;48.808;8.820;2024-01-30T13:17:09;4.93;;;2.90;;
70967;SDS011;58629;48.808;8.820;2024-01-30T13:19:34;6.00;;;3.60;;
70967;SDS011;58629;48.808;8.820;2024-01-30T13:22:00;5.10;;;3.00;;
70967;SDS011;58629;48.808;8.820;2024-01-30T13:24:25;6.03;;;3.03;;
70967;SDS011;58629;48.808;8.820;2024-01-30T13:26:51;4.20;;;3.00;;
70967;SDS011;58629;48.808;8.820;2024-01-30T13:29:18;5.27;;;3.03;;
70967;SDS011;58629;48.808;8.820;2024-01-30T13:31:43;4.30;;;2.60;;
70967;SDS011;58629;48.808;8.820;2024-01-30T13:34:11;4.53;;;2.67;;
70967;SDS011;58629;48.808;8.820;2024-01-30T13:36:37;4.80;;;2.77;;
70967;SDS011;58629;48.808;8.820;2024-01-30T13:39:03;5.65;;;2.80;;
70967;SDS011;58629;48.808;8.820;2024-01-30T13:41:32;5.70;;;3.38;;
70967;SDS011;58629;48.808;8.820;2024-01-30T13:43:57;4.80;;;2.97;;
70967;SDS011;58629;48.808;8.820;2024-01-30T13:46:23;4.22;;;2.90;;
70967;SDS011;58629;48.808;8.820;2024-01-30T13:48:48;4.97;;;2.70;;
70967;SDS011;58629;48.808;8.820;2024-01-30T13:51:14;3.50;;;2.40;;
70967;SDS011;58629;48.808;8.820;2024-01-30T13:53:41;3.65;;;2.50;;
70967;SDS011;58629;48.808;8.820;2024-01-30T13:56:07;4.03;;;2.47;;
70967;SDS011;58629;48.808;8.820;2024-01-30T13:58:32;3.00;;;2.00;;
70967;SDS011;58629;48.808;8.820;2024-01-30T14:00:58;3.28;;;2.22;;
70967;SDS011;58629;48.808;8.820;2024-01-30T14:03:24;3.67;;;2.17;;
70967;SDS011;58629;48.808;8.820;2024-01-30T14:05:49;3.70;;;2.20;;
70967;SDS011;58629;48.808;8.820;2024-01-30T14:08:15;3.17;;;2.00;;
70967;SDS011;58629;48.808;8.820;2024-01-30T14:10:40;3.50;;;2.03;;
70967;SDS011;58629;48.808;8.820;2024-01-30T14:13:05;4.47;;;2.77;;
70967;SDS011;58629;48.808;8.820;2024-01-30T14:15:31;3.90;;;2.17;;
70967;SDS011;58629;48.808;8.820;2024-01-30T14:17:56;3.30;;;2.20;;
70967;SDS011;58629;48.808;8.820;2024-01-30T14:20:22;2.97;;;1.98;;
70967;SDS011;58629;48.808;8.820;2024-01-30T14:22:47;2.93;;;2.10;;
70967;SDS011;58629;48.808;8.820;2024-01-30T14:25:12;3.03;;;2.23;;
70967;SDS011;58629;48.808;8.820;2024-01-30T14:27:38;4.40;;;2.93;;
70967;SDS011;58629;48.808;8.820;2024-01-30T14:30:03;6.78;;;3.50;;
70967;SDS011;58629;48.808;8.820;2024-01-30T14:32:29;5.80;;;3.13;;
70967;SDS011;58629;48.808;8.820;2024-01-30T14:34:55;5.60;;;3.17;;
70967;SDS011;58629;48.808;8.820;2024-01-30T14:37:20;5.37;;;3.40;;
70967;SDS011;58629;48.808;8.820;2024-01-30T14:39:46;5.88;;;3.50;;